Airfield :







YOU CAN JOIN US ON...

 
LOGIN :

Register | Disclaimer

   EN    FR    IT 

 









Legend :    VFR   Marginal VFR   IFR   Intensive IFR   Very Intensive IFR
Visi :
Ceiling :
>= 8 km
>= 3000ft
5 to 8 km
1000 to 3000 ft
1500m to 5 km
500 to 1000 ft
800 to 1500m
200 to 500 ft
< 800m
< 200 ft
Symbols :   Thunderstorms  Fog  Heavy snow  Heavy precipitations  Wind > 20 kt






- Airport Elevation : 39 ft
- IATA code : YNA


CYNA - Natashquan

EXPIRED METARs :
  • 130600Z AUTO /////KT 19/18 A2986 RMK WND MISG CLD MISG WX MISG VIS MISG PCPN MISG ICG MISG SLP113 DENSITY ALT 500FT
  • 130500Z AUTO /////KT 19/18 A2986 RMK WND MISG CLD MISG WX MISG VIS MISG PCPN MISG ICG MISG SLP112 DENSITY ALT 600FT

TAF TAF CYNA
Valid from the 13 at 02:00 until the 13 at 14:00 UTC


130138Z 1302/1314 26005KT P6SM SKC
TEMPO 1302/1309 2SM BR BKN007
PROB30 1302/1309 3/4SM BR BKN003
FM130900 29005KT 2SM -DZ BR OVC005
TEMPO 1309/1314 6SM BR OVC010
PROB30 1309/1314 1/2SM FG VV002 RMK FCST BASED ON AUTO OBS. NXT FCST BY 130800Z
CZUL FIR / North America



MET'MAP, your aeronautical weather chart ! - Copyright ORBIFLY December 2007 - Disclaimer

ORBIFLY MET'MAP TEAM :

Programming & Development : Alexandra Zaïnal
Concept & original design : Baudouin d'Aumeries
Assistance for programming : Marc-Olivier Méhu
Technical & hardware support : Manuel Goepfert

Contact : metmap@orbifly.com




SOURCES & CREDITS :

   NOAA